createdAt,value
2022-10-08T00:00:03.292Z,14.40
2022-10-08T00:02:32.944Z,14.56
2022-10-08T00:05:02.603Z,14.56
2022-10-08T00:07:32.261Z,14.44
2022-10-08T00:10:01.889Z,14.45
2022-10-08T00:12:31.512Z,14.38
2022-10-08T00:15:03.839Z,14.49
2022-10-08T00:17:33.621Z,14.34
2022-10-08T00:20:03.460Z,14.39
2022-10-08T00:22:33.227Z,14.26
2022-10-08T00:25:03.355Z,14.45
2022-10-08T00:27:34.837Z,14.46
2022-10-08T00:30:08.167Z,14.37
2022-10-08T00:32:37.873Z,14.53
2022-10-08T00:35:08.482Z,14.48
2022-10-08T00:37:38.182Z,14.46
2022-10-08T00:40:08.764Z,14.54
2022-10-08T00:42:38.581Z,14.45
2022-10-08T00:45:15.364Z,14.56
2022-10-08T00:47:48.315Z,14.61
2022-10-08T00:50:23.719Z,14.51
2022-10-08T00:52:57.859Z,14.58
2022-10-08T00:55:29.456Z,14.56
2022-10-08T00:58:01.743Z,14.31
2022-10-08T01:00:34.530Z,14.45
2022-10-08T01:03:04.888Z,14.60
2022-10-08T01:05:46.178Z,14.54
2022-10-08T01:08:20.810Z,14.53
2022-10-08T01:11:00.407Z,14.37
2022-10-08T01:13:42.259Z,14.50
2022-10-08T01:16:22.331Z,14.14
2022-10-08T01:18:57.354Z,14.12
2022-10-08T01:21:38.223Z,14.16
2022-10-08T01:24:47.334Z,14.12
2022-10-08T01:27:31.344Z,14.15
2022-10-08T01:30:05.929Z,14.21
2022-10-08T01:32:41.677Z,14.24
2022-10-08T01:35:15.891Z,14.28
2022-10-08T01:37:46.969Z,14.22
2022-10-08T01:40:21.611Z,13.99
2022-10-08T01:42:57.255Z,14.17
2022-10-08T01:45:33.201Z,14.24
2022-10-08T01:48:08.088Z,14.29
2022-10-08T01:50:44.452Z,14.33
2022-10-08T01:53:18.730Z,14.28
2022-10-08T01:55:52.609Z,14.35
2022-10-08T01:58:31.335Z,14.29
2022-10-08T02:01:08.083Z,14.21
2022-10-08T02:03:37.898Z,14.18
2022-10-08T02:06:07.331Z,14.35
2022-10-08T02:08:37.043Z,14.36
2022-10-08T02:11:07.552Z,14.26
2022-10-08T02:13:41.423Z,14.21
2022-10-08T02:16:17.568Z,14.08
2022-10-08T02:18:54.826Z,14.12
2022-10-08T02:21:28.113Z,14.16
2022-10-08T02:24:03.424Z,14.25
2022-10-08T02:26:40.554Z,14.31
2022-10-08T02:29:18.009Z,14.23
2022-10-08T02:31:52.842Z,14.25
2022-10-08T02:34:27.234Z,14.19
2022-10-08T02:37:03.392Z,14.33
2022-10-08T02:39:36.944Z,14.27
2022-10-08T02:42:11.433Z,14.38
2022-10-08T02:44:46.540Z,14.40
2022-10-08T02:47:21.268Z,14.23
2022-10-08T02:49:56.319Z,14.17
2022-10-08T02:52:30.037Z,14.15
2022-10-08T02:55:03.279Z,14.10
2022-10-08T02:57:37.194Z,14.08
2022-10-08T03:00:11.206Z,14.16
2022-10-08T03:02:46.594Z,14.03
2022-10-08T03:05:20.109Z,13.97
2022-10-08T03:07:53.699Z,13.87
2022-10-08T03:10:26.154Z,13.97
2022-10-08T03:12:57.096Z,14.16
2022-10-08T03:15:29.461Z,14.23
2022-10-08T03:18:01.122Z,14.25
2022-10-08T03:20:31.102Z,14.17
2022-10-08T03:23:03.529Z,14.27
2022-10-08T03:25:33.209Z,14.30
2022-10-08T03:28:02.892Z,14.28
2022-10-08T03:30:35.388Z,14.30
2022-10-08T03:33:05.647Z,14.27
2022-10-08T03:35:35.534Z,14.23
2022-10-08T03:38:05.216Z,14.16
2022-10-08T03:40:34.961Z,14.17
2022-10-08T03:43:04.645Z,14.30
2022-10-08T03:45:37.049Z,14.17
2022-10-08T03:48:07.012Z,14.25
2022-10-08T03:50:36.795Z,14.27
2022-10-08T03:53:06.491Z,14.26
2022-10-08T03:55:38.619Z,14.29
2022-10-08T03:58:08.267Z,14.12
2022-10-08T04:00:40.679Z,14.03
2022-10-08T04:03:10.881Z,14.09
2022-10-08T04:05:40.621Z,14.12
2022-10-08T04:08:10.338Z,14.11
2022-10-08T04:10:41.283Z,13.90
2022-10-08T04:13:11.145Z,13.75
2022-10-08T04:15:43.601Z,13.83
2022-10-08T04:18:14.215Z,13.85
2022-10-08T04:20:44.152Z,13.97
2022-10-08T04:23:14.679Z,13.91
2022-10-08T04:25:52.699Z,14.09
2022-10-08T04:28:23.105Z,14.05
2022-10-08T04:31:03.619Z,14.03
2022-10-08T04:33:35.726Z,13.99
2022-10-08T04:36:10.360Z,13.96
2022-10-08T04:38:40.228Z,13.91
2022-10-08T04:41:12.394Z,13.90
2022-10-08T04:43:43.415Z,14.11
2022-10-08T04:46:17.931Z,14.10
2022-10-08T04:48:49.730Z,14.05
2022-10-08T04:51:19.559Z,13.98
2022-10-08T04:53:49.691Z,13.99
2022-10-08T04:56:21.529Z,14.05
2022-10-08T04:58:51.777Z,14.01
2022-10-08T05:01:25.225Z,13.96
2022-10-08T05:03:58.901Z,14.03
2022-10-08T05:06:30.531Z,13.96
2022-10-08T05:09:03.161Z,13.92
2022-10-08T05:11:33.592Z,13.89
2022-10-08T05:14:03.304Z,13.95
2022-10-08T05:16:35.669Z,13.98
2022-10-08T05:19:05.953Z,13.84
2022-10-08T05:21:35.938Z,13.83
2022-10-08T05:24:08.443Z,13.75
2022-10-08T05:29:30.850Z,13.84
2022-10-08T05:32:03.124Z,13.86
2022-10-08T05:34:32.805Z,13.80
2022-10-08T05:37:02.441Z,13.77
2022-10-08T05:39:32.123Z,13.74
2022-10-08T05:42:01.913Z,13.72
2022-10-08T05:44:36.107Z,13.71
2022-10-08T05:47:09.894Z,13.69
2022-10-08T05:49:39.702Z,13.67
2022-10-08T05:52:09.466Z,13.65
2022-10-08T05:54:39.163Z,13.70
2022-10-08T05:57:08.853Z,13.75
2022-10-08T05:59:38.752Z,13.76
2022-10-08T06:02:13.037Z,13.70
2022-10-08T06:04:42.859Z,13.77
2022-10-08T06:07:12.538Z,13.77
2022-10-08T06:09:42.259Z,13.74
2022-10-08T06:12:13.909Z,13.66
2022-10-08T06:14:43.670Z,13.62
2022-10-08T06:17:16.005Z,13.72
2022-10-08T06:19:45.790Z,13.77
2022-10-08T06:22:15.495Z,13.80
2022-10-08T06:24:45.327Z,13.77
2022-10-08T06:27:15.070Z,13.71
2022-10-08T06:29:44.900Z,13.65
2022-10-08T06:32:17.448Z,13.69
2022-10-08T06:34:47.137Z,13.72
2022-10-08T06:37:18.827Z,13.79
2022-10-08T06:39:48.677Z,13.84
2022-10-08T06:42:18.418Z,13.90
2022-10-08T06:44:48.069Z,13.97
2022-10-08T06:47:20.500Z,14.03
2022-10-08T06:49:50.191Z,14.17
2022-10-08T06:52:19.891Z,14.42
2022-10-08T06:54:49.518Z,14.76
2022-10-08T06:57:19.201Z,14.97
2022-10-08T06:59:48.864Z,15.14
2022-10-08T07:02:21.147Z,15.53
2022-10-08T07:04:50.857Z,15.69
2022-10-08T07:07:20.505Z,16.03
2022-10-08T07:09:50.151Z,16.29
2022-10-08T07:12:19.794Z,16.61
2022-10-08T07:14:49.490Z,16.70
2022-10-08T07:17:22.718Z,16.91
2022-10-08T07:19:52.431Z,17.05
2022-10-08T07:22:22.083Z,17.42
2022-10-08T07:24:51.836Z,17.91
2022-10-08T07:27:23.021Z,18.65
2022-10-08T07:29:52.642Z,18.98
2022-10-08T07:32:24.885Z,19.13
2022-10-08T07:34:59.223Z,19.73
2022-10-08T07:37:29.616Z,20.08
2022-10-08T07:39:59.379Z,19.60
2022-10-08T07:42:29.137Z,19.59
2022-10-08T07:44:58.816Z,19.49
2022-10-08T07:47:31.061Z,19.71
2022-10-08T07:50:00.744Z,19.43
2022-10-08T07:52:32.525Z,18.32
2022-10-08T07:55:02.310Z,17.20
2022-10-08T07:57:32.025Z,16.76
2022-10-08T08:00:01.736Z,16.59
2022-10-08T08:02:34.176Z,16.26
2022-10-08T08:05:03.937Z,16.65
2022-10-08T08:07:33.612Z,17.10
2022-10-08T08:10:03.323Z,17.13
2022-10-08T08:12:33.051Z,16.89
2022-10-08T08:15:02.939Z,17.13
2022-10-08T08:17:37.082Z,16.29
2022-10-08T08:20:07.321Z,16.19
2022-10-08T08:22:37.063Z,15.94
2022-10-08T08:25:07.431Z,15.67
2022-10-08T08:27:37.258Z,15.74
2022-10-08T08:30:08.088Z,15.76
2022-10-08T08:32:40.803Z,15.77
2022-10-08T08:35:11.046Z,15.77
2022-10-08T08:37:40.771Z,15.85
2022-10-08T08:40:12.400Z,16.41
2022-10-08T08:42:54.120Z,16.48
2022-10-08T08:45:47.617Z,16.64
2022-10-08T08:48:24.864Z,16.99
2022-10-08T08:50:58.903Z,16.88
2022-10-08T08:53:30.597Z,16.91
2022-10-08T08:56:03.654Z,16.84
2022-10-08T08:58:40.539Z,17.17
2022-10-08T09:01:20.569Z,17.68
2022-10-08T09:03:57.106Z,17.81
2022-10-08T09:06:28.771Z,17.88
2022-10-08T09:09:02.330Z,17.96
2022-10-08T09:11:33.309Z,17.98
2022-10-08T09:14:16.551Z,18.06
2022-10-08T09:16:46.369Z,18.15
2022-10-08T09:19:18.770Z,18.00
2022-10-08T09:21:48.443Z,18.38
2022-10-08T09:24:18.294Z,18.77
2022-10-08T09:26:47.994Z,18.75
2022-10-08T09:29:35.634Z,18.50
2022-10-08T09:32:05.623Z,18.40
2022-10-08T09:34:38.155Z,18.58
2022-10-08T09:37:08.995Z,18.76
2022-10-08T09:39:40.186Z,18.63
2022-10-08T09:42:17.983Z,18.86
2022-10-08T09:44:49.412Z,18.51
2022-10-08T09:47:21.324Z,18.60
2022-10-08T09:50:06.474Z,18.65
2022-10-08T09:52:38.474Z,18.43
2022-10-08T09:55:13.088Z,18.76
2022-10-08T09:57:47.434Z,18.83
2022-10-08T10:00:28.241Z,18.16
2022-10-08T10:02:59.838Z,18.20
2022-10-08T10:05:34.432Z,17.80
2022-10-08T10:08:04.799Z,18.25
2022-10-08T10:10:38.760Z,18.08
2022-10-08T10:13:13.663Z,17.75
2022-10-08T10:15:49.543Z,17.87
2022-10-08T10:18:23.695Z,18.58
2022-10-08T10:21:00.463Z,19.35
2022-10-08T10:23:36.777Z,19.76
2022-10-08T10:26:10.125Z,20.06
2022-10-08T10:31:20.961Z,20.71
2022-10-08T10:33:55.764Z,19.92
2022-10-08T10:36:33.128Z,19.84
2022-10-08T10:39:11.967Z,20.60
2022-10-08T10:41:45.998Z,21.84
2022-10-08T10:44:18.656Z,22.40
2022-10-08T10:46:52.084Z,22.31
2022-10-08T10:49:24.975Z,22.39
2022-10-08T10:52:07.187Z,21.29
2022-10-08T10:54:59.244Z,20.89
2022-10-08T10:57:42.498Z,21.14
2022-10-08T11:00:20.917Z,20.53
2022-10-08T11:02:57.114Z,19.68
2022-10-08T11:05:29.415Z,20.42
2022-10-08T11:08:25.524Z,21.48
2022-10-08T11:11:10.557Z,21.96
2022-10-08T11:13:53.767Z,22.78
2022-10-08T11:16:37.082Z,23.89
2022-10-08T11:19:13.173Z,24.57
2022-10-08T11:21:53.651Z,24.32
2022-10-08T11:24:42.512Z,24.44
2022-10-08T11:27:21.654Z,23.73
2022-10-08T11:29:58.550Z,24.03
2022-10-08T11:32:30.103Z,23.73
2022-10-08T11:35:17.463Z,23.47
2022-10-08T11:37:52.455Z,23.94
2022-10-08T11:40:31.635Z,23.50
2022-10-08T11:43:08.234Z,22.72
2022-10-08T11:45:40.324Z,22.48
2022-10-08T11:48:35.567Z,22.29
2022-10-08T11:51:35.242Z,21.35
2022-10-08T11:54:26.453Z,21.19
2022-10-08T11:57:16.234Z,20.99
2022-10-08T11:59:49.612Z,20.49
2022-10-08T12:02:26.912Z,20.65
2022-10-08T12:04:58.984Z,20.65
2022-10-08T12:07:33.297Z,20.34
2022-10-08T12:10:29.956Z,19.94
2022-10-08T12:13:26.230Z,19.54
2022-10-08T12:16:06.866Z,19.65
2022-10-08T12:18:55.154Z,20.06
2022-10-08T12:21:52.988Z,19.84
2022-10-08T12:24:55.506Z,19.74
2022-10-08T12:27:33.977Z,20.30
2022-10-08T12:30:08.689Z,20.21
2022-10-08T12:32:59.986Z,19.92
2022-10-08T12:35:33.430Z,19.63
2022-10-08T12:38:33.934Z,19.30
2022-10-08T12:41:18.054Z,19.29
2022-10-08T12:43:54.603Z,19.57
2022-10-08T12:46:38.298Z,19.79
2022-10-08T12:49:20.324Z,19.70
2022-10-08T12:51:58.287Z,19.73
2022-10-08T12:54:30.862Z,19.04
2022-10-08T12:57:01.457Z,18.98
2022-10-08T12:59:33.330Z,18.58
2022-10-08T13:02:05.831Z,18.11
2022-10-08T13:04:35.903Z,18.33
2022-10-08T13:07:21.980Z,18.49
2022-10-08T13:09:57.601Z,18.82
2022-10-08T13:12:27.645Z,18.74
2022-10-08T13:15:05.951Z,18.75
2022-10-08T13:17:39.598Z,18.77
2022-10-08T13:20:17.582Z,18.76
2022-10-08T13:22:47.633Z,18.77
2022-10-08T13:25:39.508Z,18.79
2022-10-08T13:28:14.616Z,19.07
2022-10-08T13:30:46.595Z,19.07
2022-10-08T13:33:21.846Z,18.85
2022-10-08T13:35:56.945Z,19.02
2022-10-08T13:38:29.977Z,19.00
2022-10-08T13:41:05.738Z,18.91
2022-10-08T13:43:36.956Z,18.70
2022-10-08T13:46:06.711Z,18.74
2022-10-08T13:48:45.660Z,18.50
2022-10-08T13:51:15.458Z,18.66
2022-10-08T13:53:45.977Z,18.65
2022-10-08T13:56:18.278Z,18.53
2022-10-08T13:58:47.894Z,18.24
2022-10-08T14:01:17.568Z,18.18
2022-10-08T14:03:49.904Z,18.08
2022-10-08T14:06:19.630Z,18.12
2022-10-08T14:08:49.400Z,18.16
2022-10-08T14:11:19.269Z,17.98
2022-10-08T14:13:48.991Z,17.89
2022-10-08T14:16:18.705Z,17.73
2022-10-08T14:18:51.155Z,17.50
2022-10-08T14:21:20.841Z,17.22
2022-10-08T14:23:50.531Z,17.05
2022-10-08T14:26:20.182Z,17.26
2022-10-08T14:28:49.911Z,17.38
2022-10-08T14:31:19.673Z,17.50
2022-10-08T14:33:52.076Z,17.76
2022-10-08T14:36:24.154Z,17.88
2022-10-08T14:38:53.914Z,17.98
2022-10-08T14:41:23.613Z,17.67
2022-10-08T14:43:53.429Z,17.80
2022-10-08T14:46:23.197Z,17.73
2022-10-08T14:48:55.623Z,18.00
2022-10-08T14:51:25.356Z,18.04
2022-10-08T14:53:55.620Z,17.99
2022-10-08T14:56:26.008Z,17.79
2022-10-08T14:58:55.725Z,17.73
2022-10-08T15:01:25.552Z,17.74
2022-10-08T15:03:57.914Z,17.72
2022-10-08T15:06:27.823Z,17.79
2022-10-08T15:08:57.567Z,17.61
2022-10-08T15:11:27.424Z,17.63
2022-10-08T15:13:59.416Z,17.50
2022-10-08T15:16:29.166Z,17.46
2022-10-08T15:19:01.599Z,17.38
2022-10-08T15:21:31.298Z,17.36
2022-10-08T15:24:01.187Z,17.26
2022-10-08T15:26:30.907Z,17.10
2022-10-08T15:29:00.776Z,17.04
2022-10-08T15:31:30.876Z,16.86
2022-10-08T15:34:03.261Z,16.84
2022-10-08T15:36:36.284Z,16.78
2022-10-08T15:39:08.176Z,16.64
2022-10-08T15:41:39.363Z,16.58
2022-10-08T15:44:12.615Z,16.56
2022-10-08T15:46:42.297Z,16.41
2022-10-08T15:49:14.963Z,16.28
2022-10-08T15:51:45.207Z,16.32
2022-10-08T15:54:15.262Z,16.26
2022-10-08T15:56:44.934Z,16.19
2022-10-08T15:59:14.616Z,16.09
2022-10-08T16:01:44.391Z,16.10
2022-10-08T16:04:17.561Z,16.11
2022-10-08T16:06:47.521Z,16.09
2022-10-08T16:09:20.508Z,15.97
2022-10-08T16:11:51.040Z,15.80
2022-10-08T16:14:22.930Z,15.84
2022-10-08T16:16:53.059Z,15.73
2022-10-08T16:19:27.610Z,15.76
2022-10-08T16:21:59.232Z,15.64
2022-10-08T16:24:29.107Z,15.52
2022-10-08T16:26:58.745Z,15.56
2022-10-08T16:29:28.479Z,15.40
2022-10-08T16:31:58.707Z,15.34
2022-10-08T16:34:32.015Z,15.25
2022-10-08T16:37:02.272Z,15.25
2022-10-08T16:39:32.262Z,15.40
2022-10-08T16:42:02.079Z,15.28
2022-10-08T16:44:31.996Z,15.22
2022-10-08T16:47:01.659Z,15.06
2022-10-08T16:49:34.105Z,14.98
2022-10-08T16:52:08.262Z,14.99
2022-10-08T16:54:38.865Z,14.90
2022-10-08T16:57:08.583Z,14.79
2022-10-08T16:59:38.300Z,14.82
2022-10-08T17:02:07.944Z,14.76
2022-10-08T17:04:40.290Z,14.90
2022-10-08T17:07:10.417Z,14.99
2022-10-08T17:09:40.292Z,14.83
2022-10-08T17:12:10.006Z,14.60
2022-10-08T17:14:40.379Z,14.57
2022-10-08T17:17:10.124Z,14.64
2022-10-08T17:19:44.552Z,14.42
2022-10-08T17:22:16.992Z,14.64
2022-10-08T17:24:46.791Z,14.58
2022-10-08T17:27:16.499Z,14.50
2022-10-08T17:29:46.211Z,14.53
2022-10-08T17:32:16.009Z,14.42
2022-10-08T17:34:48.284Z,14.37
2022-10-08T17:37:17.975Z,14.42
2022-10-08T17:39:47.978Z,14.43
2022-10-08T17:42:17.678Z,14.39
2022-10-08T17:44:47.397Z,14.28
2022-10-08T17:47:17.133Z,14.21
2022-10-08T17:49:49.410Z,14.03
2022-10-08T17:52:19.156Z,13.86
2022-10-08T17:54:48.858Z,13.73
2022-10-08T17:57:21.499Z,13.52
2022-10-08T17:59:51.445Z,13.52
2022-10-08T18:02:21.214Z,13.60
2022-10-08T18:04:53.528Z,13.68
2022-10-08T18:07:23.253Z,13.58
2022-10-08T18:09:53.017Z,13.51
2022-10-08T18:12:22.697Z,13.53
2022-10-08T18:14:52.458Z,13.62
2022-10-08T18:17:22.172Z,13.48
2022-10-08T18:19:54.539Z,13.45
2022-10-08T18:22:24.357Z,13.42
2022-10-08T18:24:54.583Z,13.23
2022-10-08T18:27:24.234Z,13.43
2022-10-08T18:29:53.891Z,13.29
2022-10-08T18:32:23.600Z,13.14
2022-10-08T18:34:55.979Z,13.03
2022-10-08T18:37:25.675Z,13.04
2022-10-08T18:39:57.511Z,13.04
2022-10-08T18:42:27.234Z,13.10
2022-10-08T18:44:56.880Z,12.93
2022-10-08T18:47:26.762Z,12.95
2022-10-08T18:49:59.068Z,12.89
2022-10-08T18:52:28.740Z,12.91
2022-10-08T18:54:58.435Z,12.67
2022-10-08T18:57:28.224Z,12.55
2022-10-08T18:59:58.036Z,12.58
2022-10-08T19:02:27.857Z,12.78
2022-10-08T19:05:01.095Z,12.66
2022-10-08T19:07:30.772Z,12.61
2022-10-08T19:10:00.457Z,12.41
2022-10-08T19:12:30.125Z,12.74
2022-10-08T19:14:59.842Z,12.66
2022-10-08T19:17:29.578Z,12.45
2022-10-08T19:20:01.898Z,12.43
2022-10-08T19:22:31.556Z,12.40
2022-10-08T19:25:01.210Z,12.43
2022-10-08T19:27:30.943Z,12.37
2022-10-08T19:30:00.966Z,12.32
2022-10-08T19:32:30.740Z,12.29
2022-10-08T19:35:03.091Z,12.21
2022-10-08T19:37:32.892Z,12.19
2022-10-08T19:40:02.657Z,12.15
2022-10-08T19:42:32.505Z,12.24
2022-10-08T19:45:02.214Z,12.22
2022-10-08T19:47:31.934Z,12.17
2022-10-08T19:50:04.286Z,12.17
2022-10-08T19:52:33.991Z,11.95
2022-10-08T19:55:03.734Z,11.93
2022-10-08T19:57:33.559Z,12.04
2022-10-08T20:00:03.510Z,12.03
2022-10-08T20:02:33.509Z,12.09
2022-10-08T20:05:05.904Z,12.14
2022-10-08T20:07:35.622Z,12.14
2022-10-08T20:10:05.361Z,12.13
2022-10-08T20:12:35.128Z,12.13
2022-10-08T20:15:07.643Z,11.87
2022-10-08T20:17:37.366Z,12.03
2022-10-08T20:20:31.749Z,12.09
2022-10-08T20:23:00.433Z,12.13
2022-10-08T20:25:30.178Z,12.06
2022-10-08T20:27:59.975Z,12.00
2022-10-08T20:30:29.746Z,11.87
2022-10-08T20:32:59.455Z,11.94
2022-10-08T20:35:31.921Z,11.80
2022-10-08T20:38:01.660Z,11.77
2022-10-08T20:40:31.381Z,11.61
2022-10-08T20:43:01.138Z,11.49
2022-10-08T20:45:30.841Z,11.46
2022-10-08T20:48:00.593Z,11.38
2022-10-08T20:50:32.950Z,11.42
2022-10-08T20:53:02.720Z,11.43
2022-10-08T20:55:32.388Z,11.49
2022-10-08T20:58:02.108Z,11.39
2022-10-08T21:00:31.823Z,11.32
2022-10-08T21:03:02.043Z,11.42
2022-10-08T21:05:34.355Z,11.44
2022-10-08T21:08:04.084Z,11.29
2022-10-08T21:10:33.824Z,11.38
2022-10-08T21:13:03.499Z,11.30
2022-10-08T21:15:33.239Z,11.23
2022-10-08T21:18:03.002Z,11.28
2022-10-08T21:20:38.433Z,11.29
2022-10-08T21:23:08.189Z,11.18
2022-10-08T21:25:37.943Z,11.13
2022-10-08T21:28:07.724Z,11.16
2022-10-08T21:30:37.548Z,10.97
2022-10-08T21:33:07.367Z,11.09
2022-10-08T21:35:41.392Z,11.07
2022-10-08T21:38:11.090Z,11.09
2022-10-08T21:40:40.866Z,11.19
2022-10-08T21:43:10.547Z,11.31
2022-10-08T21:45:40.327Z,11.24
2022-10-08T21:48:10.061Z,11.31
2022-10-08T21:50:42.412Z,11.44
2022-10-08T21:53:12.085Z,11.43
2022-10-08T21:55:41.826Z,11.57
2022-10-08T21:58:11.512Z,11.41
2022-10-08T22:00:41.445Z,11.60
2022-10-08T22:03:11.127Z,11.62
2022-10-08T22:05:51.585Z,11.35
2022-10-08T22:08:21.297Z,11.12
2022-10-08T22:10:51.682Z,11.36
2022-10-08T22:13:21.817Z,11.19
2022-10-08T22:15:56.041Z,10.78
2022-10-08T22:18:26.867Z,11.06
2022-10-08T22:20:59.635Z,11.08
2022-10-08T22:23:29.415Z,11.31
2022-10-08T22:26:01.014Z,11.38
2022-10-08T22:28:31.424Z,11.49
2022-10-08T22:31:02.411Z,11.21
2022-10-08T22:33:32.999Z,10.78
2022-10-08T22:36:07.598Z,10.50
2022-10-08T22:38:39.521Z,10.41
2022-10-08T22:41:11.681Z,10.70
2022-10-08T22:43:42.772Z,10.84
2022-10-08T22:46:14.401Z,11.08
2022-10-08T22:48:44.497Z,10.94
2022-10-08T22:51:18.444Z,10.81
2022-10-08T22:53:48.926Z,11.05
2022-10-08T22:56:21.254Z,10.83
2022-10-08T22:58:51.867Z,11.18
2022-10-08T23:01:23.641Z,11.01
2022-10-08T23:03:54.053Z,10.92
2022-10-08T23:06:28.170Z,10.82
2022-10-08T23:08:59.870Z,10.93
2022-10-08T23:11:31.872Z,10.98
2022-10-08T23:14:03.026Z,10.91
2022-10-08T23:16:34.923Z,10.64
2022-10-08T23:19:06.920Z,10.49
2022-10-08T23:21:44.175Z,10.69
2022-10-08T23:24:14.117Z,10.55
2022-10-08T23:26:43.878Z,10.36
2022-10-08T23:29:14.487Z,10.44
2022-10-08T23:31:44.261Z,10.40
2022-10-08T23:34:14.000Z,10.30
2022-10-08T23:36:47.130Z,9.95
2022-10-08T23:39:18.876Z,10.38
2022-10-08T23:41:48.598Z,10.21
2022-10-08T23:44:18.312Z,10.22
2022-10-08T23:46:48.020Z,10.46
2022-10-08T23:49:18.818Z,10.38
2022-10-08T23:51:51.103Z,10.68
2022-10-08T23:54:20.848Z,10.39
2022-10-08T23:56:50.576Z,10.13
2022-10-08T23:59:20.698Z,9.98
